Time;durP1;ratioP1;P1;durP2;ratioP2;P2;SDS_P1;SDS_P2;PMS_P1;PMS_P2;Temp;Humidity;BMP_temperature;BMP_pressure;BME280_temperature;BME280_humidity;BME280_pressure;Samples;Min_cycle;Max_cycle;Signal;HPM_P1;HPM_P2
2023/03/30 00:00:37;;;;;;;10.70;2.40;;;;;;;7.43;100.00;95370.06;5035861;28;20040;-73
2023/03/30 00:03:18;;;;;;;8.05;2.33;;;;;;;7.49;100.00;95367.50;5042312;28;20251;-73
2023/03/30 00:05:45;;;;;;;10.95;2.28;;;;;;;7.50;100.00;95367.25;5045703;28;20048;-73
2023/03/30 00:08:13;;;;;;;11.10;2.40;;;;;;;7.50;100.00;95363.81;5042890;28;20417;-74
2023/03/30 00:10:43;;;;;;;8.13;2.42;;;;;;;8.01;100.00;95368.53;5033284;28;20037;-73
2023/03/30 00:13:10;;;;;;;6.90;2.22;;;;;;;8.35;100.00;95368.09;5038738;28;20037;-73
2023/03/30 00:15:36;;;;;;;9.85;2.22;;;;;;;8.57;100.00;95360.06;5042380;28;20048;-73
2023/03/30 00:18:02;;;;;;;12.05;2.30;;;;;;;8.65;100.00;95352.47;5037426;28;20037;-74
2023/03/30 00:20:31;;;;;;;9.52;2.40;;;;;;;8.73;100.00;95353.78;5039945;28;20044;-73
2023/03/30 00:22:56;;;;;;;9.10;2.10;;;;;;;8.76;100.00;95348.00;5031157;28;21010;-74
2023/03/30 00:25:22;;;;;;;10.35;2.53;;;;;;;8.90;100.00;95348.28;5044744;28;20037;-73
2023/03/30 00:27:48;;;;;;;7.68;1.98;;;;;;;8.84;100.00;95344.88;5042063;28;20041;-74
2023/03/30 00:30:16;;;;;;;9.00;2.03;;;;;;;8.99;100.00;95345.94;5030790;28;20124;-74
2023/03/30 00:32:43;;;;;;;12.13;1.88;;;;;;;8.95;100.00;95335.19;5032179;28;20060;-74
2023/03/30 00:35:09;;;;;;;11.15;1.85;;;;;;;8.99;100.00;95335.44;5034371;28;20103;-74
2023/03/30 00:37:37;;;;;;;9.75;2.42;;;;;;;9.11;100.00;95330.72;5046997;28;20045;-74
2023/03/30 00:40:06;;;;;;;8.90;1.90;;;;;;;9.07;100.00;95331.50;5039963;28;20048;-74
2023/03/30 00:42:36;;;;;;;10.88;2.35;;;;;;;9.13;100.00;95325.97;5035534;28;20050;-74
2023/03/30 00:45:15;;;;;;;8.68;2.22;;;;;;;9.19;100.00;95322.31;5035437;28;20041;-74
2023/03/30 00:47:45;;;;;;;6.25;1.90;;;;;;;9.23;100.00;95321.78;5034963;28;20044;-74
2023/03/30 00:50:11;;;;;;;6.75;1.95;;;;;;;9.30;100.00;95319.66;5040098;28;20152;-74
2023/03/30 00:52:38;;;;;;;6.40;2.03;;;;;;;9.25;100.00;95311.78;5029482;28;20099;-74
2023/03/30 00:55:07;;;;;;;8.55;2.13;;;;;;;9.13;100.00;95315.47;5031993;28;20080;-74
2023/03/30 00:57:36;;;;;;;10.75;2.17;;;;;;;9.22;100.00;95296.56;5030129;28;20037;-74
2023/03/30 01:00:06;;;;;;;4.65;2.17;;;;;;;9.40;100.00;95298.63;5036497;28;20041;-74
2023/03/30 01:02:34;;;;;;;6.82;2.28;;;;;;;9.25;100.00;95296.03;5030547;28;20051;-74
2023/03/30 01:05:02;;;;;;;8.45;2.10;;;;;;;9.22;100.00;95301.81;5033576;28;20106;-75
2023/03/30 01:07:28;;;;;;;12.00;1.77;;;;;;;9.13;100.00;95299.72;5042357;28;20508;-75
2023/03/30 01:09:54;;;;;;;8.57;2.30;;;;;;;9.24;100.00;95297.06;5045986;28;20049;-74
2023/03/30 01:12:19;;;;;;;10.52;2.00;;;;;;;9.30;100.00;95293.41;5040965;28;20045;-74
2023/03/30 01:14:47;;;;;;;7.93;2.40;;;;;;;9.36;100.00;95284.47;5042996;28;20516;-74
2023/03/30 01:17:20;;;;;;;8.00;1.95;;;;;;;9.22;100.00;95280.81;5039953;28;20493;-75
2023/03/30 01:20:29;;;;;;;9.63;2.10;;;;;;;9.25;100.00;95275.03;5037588;28;20503;-74
2023/03/30 01:23:17;;;;;;;14.88;2.63;;;;;;;9.33;100.00;95272.63;5030886;28;20106;-74
2023/03/30 01:25:46;;;;;;;8.88;2.17;;;;;;;9.32;100.00;95280.78;5033278;28;20045;-74
2023/03/30 01:28:16;;;;;;;10.73;2.10;;;;;;;9.33;100.00;95274.50;5040477;28;20033;-74
2023/03/30 01:31:01;;;;;;;8.38;1.98;;;;;;;9.47;100.00;95275.50;5047587;28;20037;-74
2023/03/30 01:33:44;;;;;;;8.37;1.60;;;;;;;9.63;100.00;95275.44;5048268;28;20516;-74
2023/03/30 01:36:19;;;;;;;10.90;2.07;;;;;;;9.61;100.00;95272.28;5036075;28;20289;-74
2023/03/30 01:39:09;;;;;;;7.60;1.95;;;;;;;9.47;100.00;95272.88;5039914;28;20124;-75
2023/03/30 01:41:56;;;;;;;12.95;2.72;;;;;;;9.56;100.00;95273.09;5032552;28;20041;-74
2023/03/30 01:44:40;;;;;;;8.88;2.20;;;;;;;9.45;100.00;95268.94;5045182;28;20037;-74
2023/03/30 01:47:16;;;;;;;6.72;2.03;;;;;;;9.65;100.00;95273.34;5035212;28;20041;-74
2023/03/30 01:49:55;;;;;;;11.50;2.50;;;;;;;9.72;100.00;95279.09;5039434;28;20033;-74
2023/03/30 01:52:30;;;;;;;8.52;2.00;;;;;;;9.82;100.00;95268.53;5041592;28;20468;-74
2023/03/30 01:55:19;;;;;;;9.25;1.92;;;;;;;9.83;100.00;95270.09;5036698;28;20095;-74
2023/03/30 01:58:09;;;;;;;6.32;2.15;;;;;;;9.98;100.00;95273.72;5034336;28;20390;-74
2023/03/30 02:00:37;;;;;;;9.57;2.00;;;;;;;10.10;100.00;95274.19;5037553;28;20045;-74
2023/03/30 02:03:12;;;;;;;8.55;1.90;;;;;;;10.23;100.00;95273.56;5039303;28;20041;-74
2023/03/30 02:05:40;;;;;;;9.75;2.53;;;;;;;10.23;100.00;95278.84;5032299;28;20045;-74
2023/03/30 02:08:14;;;;;;;10.18;2.20;;;;;;;10.20;100.00;95284.66;5035028;28;20057;-74
2023/03/30 02:10:42;;;;;;;9.77;2.22;;;;;;;10.16;100.00;95294.13;5038114;28;20040;-74
2023/03/30 02:13:10;;;;;;;9.57;2.53;;;;;;;9.86;100.00;95306.34;5037540;28;20040;-74
2023/03/30 02:15:43;;;;;;;9.02;2.45;;;;;;;9.84;100.00;95297.97;5035896;28;20473;-74
2023/03/30 02:18:09;;;;;;;10.05;2.10;;;;;;;10.01;100.00;95292.38;5039576;28;20048;-75
2023/03/30 02:20:36;;;;;;;11.63;1.83;;;;;;;9.95;100.00;95292.66;5048076;28;20417;-74
2023/03/30 02:23:05;;;;;;;12.05;2.42;;;;;;;10.02;100.00;95304.44;5038344;28;20037;-74
2023/03/30 02:25:32;;;;;;;7.93;2.25;;;;;;;10.11;100.00;95296.00;5032447;28;20045;-74
2023/03/30 02:27:58;;;;;;;7.88;2.28;;;;;;;10.11;100.00;95296.78;5041716;28;20501;-74
2023/03/30 02:30:24;;;;;;;11.45;2.15;;;;;;;10.07;100.00;95290.50;5035650;28;20033;-75
2023/03/30 02:32:55;;;;;;;8.00;2.00;;;;;;;10.18;100.00;95286.75;5051429;28;20045;-74
2023/03/30 02:35:57;;;;;;;10.43;2.20;;;;;;;10.17;100.00;95292.28;5036817;28;20519;-74
2023/03/30 02:38:36;;;;;;;6.28;1.95;;;;;;;10.16;100.00;95288.88;5044560;28;20041;-74
2023/03/30 02:41:16;;;;;;;10.05;2.10;;;;;;;10.21;100.00;95307.25;5033922;28;20053;-74
2023/03/30 02:44:00;;;;;;;7.20;1.95;;;;;;;10.22;100.00;95319.34;5034564;28;20049;-74
2023/03/30 02:46:34;;;;;;;10.00;2.63;;;;;;;10.13;100.00;95334.13;5037886;28;20037;-74
2023/03/30 02:49:15;;;;;;;10.30;2.40;;;;;;;10.08;100.00;95328.88;5034480;28;20049;-74
2023/03/30 02:52:05;;;;;;;7.32;2.05;;;;;;;9.83;100.00;95327.94;5045500;28;20037;-74
2023/03/30 02:54:53;;;;;;;16.00;2.35;;;;;;;9.76;100.00;95343.19;5039425;28;20123;-74
2023/03/30 02:57:43;;;;;;;7.20;2.15;;;;;;;9.98;100.00;95349.94;5040757;28;20346;-75
2023/03/30 03:00:19;;;;;;;8.15;2.67;;;;;;;9.95;100.00;95351.28;5041132;28;20040;-74
2023/03/30 03:02:51;;;;;;;11.45;2.83;;;;;;;9.93;100.00;95347.31;5038219;28;20041;-74
2023/03/30 03:05:18;;;;;;;13.48;2.38;;;;;;;9.89;100.00;95353.13;5031443;28;20041;-74
2023/03/30 03:07:43;;;;;;;13.15;3.13;;;;;;;9.83;100.00;95348.94;5032160;28;20045;-74
2023/03/30 03:10:10;;;;;;;10.07;2.22;;;;;;;9.91;100.00;95349.44;5040881;28;20044;-74
2023/03/30 03:12:35;;;;;;;13.85;2.63;;;;;;;10.33;100.00;95343.75;5037752;28;20406;-74
2023/03/30 03:15:04;;;;;;;11.63;2.70;;;;;;;10.11;100.00;95349.38;5036924;28;20037;-73
2023/03/30 03:17:33;;;;;;;17.20;2.78;;;;;;;10.28;100.00;95358.78;5039196;28;20044;-74
2023/03/30 03:20:03;;;;;;;18.33;3.22;;;;;;;10.48;100.00;95357.91;5037129;28;20099;-74
2023/03/30 03:22:29;;;;;;;12.60;2.80;;;;;;;10.63;100.00;95357.03;5046730;28;20072;-74
2023/03/30 03:24:55;;;;;;;13.23;2.85;;;;;;;10.44;100.00;95352.38;5037415;28;20054;-74
2023/03/30 03:27:20;;;;;;;14.05;2.88;;;;;;;10.38;100.00;95364.00;5036646;28;20048;-75
2023/03/30 03:29:46;;;;;;;11.52;2.80;;;;;;;10.45;100.00;95358.47;5041278;28;20138;-75
2023/03/30 03:32:12;;;;;;;18.60;3.17;;;;;;;10.34;100.00;95341.94;5039963;28;20040;-75
2023/03/30 03:34:38;;;;;;;18.77;3.67;;;;;;;10.16;100.00;95351.97;5038112;28;20045;-75
2023/03/30 03:37:04;;;;;;;15.05;2.90;;;;;;;10.16;100.00;95336.19;5042942;28;20049;-74
2023/03/30 03:39:30;;;;;;;14.73;2.88;;;;;;;9.97;100.00;95332.59;5045376;28;20045;-75
2023/03/30 03:41:56;;;;;;;14.77;2.88;;;;;;;9.66;100.00;95324.84;5042736;28;20413;-75
2023/03/30 03:44:21;;;;;;;15.48;2.70;;;;;;;9.49;100.00;95319.88;5039531;28;20057;-74
2023/03/30 03:46:47;;;;;;;13.52;3.25;;;;;;;9.42;100.00;95328.03;5046219;28;20099;-75
2023/03/30 03:49:13;;;;;;;11.93;2.85;;;;;;;9.30;100.00;95335.41;5041208;28;20049;-75
2023/03/30 03:51:38;;;;;;;7.93;2.60;;;;;;;9.29;100.00;95339.09;5047514;28;20037;-73
2023/03/30 03:54:04;;;;;;;19.13;3.13;;;;;;;9.30;100.00;95351.19;5049808;28;20049;-74
2023/03/30 03:56:30;;;;;;;16.33;2.90;;;;;;;9.33;100.00;95369.03;5036517;28;20111;-75
2023/03/30 03:58:56;;;;;;;16.92;3.17;;;;;;;9.41;100.00;95379.00;5032851;28;20045;-75
2023/03/30 04:01:21;;;;;;;15.32;3.45;;;;;;;9.45;100.00;95390.56;5044539;28;20055;-75
2023/03/30 04:03:47;;;;;;;14.57;3.03;;;;;;;9.42;100.00;95404.19;5044284;28;20053;-75
2023/03/30 04:06:12;;;;;;;15.50;3.67;;;;;;;9.43;100.00;95403.16;5036198;28;20038;-74
2023/03/30 04:08:38;;;;;;;17.35;3.85;;;;;;;9.37;100.00;95409.47;5038394;28;20044;-75
2023/03/30 04:11:10;;;;;;;15.35;3.47;;;;;;;9.32;100.00;95402.38;5043052;28;20041;-75
2023/03/30 04:13:37;;;;;;;19.10;3.78;;;;;;;9.18;100.00;95402.13;5047504;28;20037;-74
2023/03/30 04:16:03;;;;;;;21.05;4.22;;;;;;;9.11;100.00;95401.59;5037620;28;20049;-74
2023/03/30 04:18:32;;;;;;;24.00;4.15;;;;;;;9.07;100.00;95395.28;5048764;28;20067;-74
2023/03/30 04:21:03;;;;;;;24.00;4.70;;;;;;;8.98;100.00;95381.13;5049362;28;20044;-75
2023/03/30 04:23:32;;;;;;;25.88;4.40;;;;;;;8.95;100.00;95381.63;5041614;28;20052;-75
2023/03/30 04:26:03;;;;;;;21.02;4.13;;;;;;;9.00;100.00;95394.75;5031288;28;20079;-74
2023/03/30 04:28:33;;;;;;;21.25;4.57;;;;;;;8.95;100.00;95402.63;5034498;28;20037;-74
2023/03/30 04:31:09;;;;;;;16.60;4.70;;;;;;;8.92;100.00;95405.78;5043879;28;20119;-73
2023/03/30 04:33:37;;;;;;;23.67;4.47;;;;;;;8.90;100.00;95407.88;5059010;28;20045;-74
2023/03/30 04:36:03;;;;;;;18.45;4.78;;;;;;;8.96;100.00;95414.69;5057059;28;20041;-74
2023/03/30 04:38:30;;;;;;;19.85;4.20;;;;;;;8.96;100.00;95427.81;5059534;28;20032;-73
2023/03/30 04:40:56;;;;;;;23.95;5.20;;;;;;;9.01;100.00;95427.84;5065160;28;20087;-74
2023/03/30 04:43:23;;;;;;;16.05;3.90;;;;;;;9.10;100.00;95436.75;5066305;28;20033;-75
2023/03/30 04:45:54;;;;;;;25.70;5.70;;;;;;;9.11;100.00;95433.09;5069385;28;20033;-73
2023/03/30 04:48:21;;;;;;;25.17;4.68;;;;;;;9.12;100.00;95439.94;5064696;28;20049;-74
2023/03/30 04:50:48;;;;;;;26.92;5.57;;;;;;;9.16;100.00;95446.22;5067793;28;20053;-74
2023/03/30 04:53:15;;;;;;;23.60;4.57;;;;;;;9.23;100.00;95445.19;5069223;28;20029;-75
2023/03/30 04:55:41;;;;;;;31.10;5.63;;;;;;;9.24;100.00;95446.75;5048725;28;20045;-75
2023/03/30 04:58:10;;;;;;;29.08;4.90;;;;;;;9.23;100.00;95439.94;5041265;28;20041;-74
2023/03/30 05:00:36;;;;;;;34.80;5.50;;;;;;;9.19;100.00;95435.22;5044262;28;20033;-74
2023/03/30 05:03:03;;;;;;;38.88;7.35;;;;;;;9.23;100.00;95424.19;5040775;28;20094;-74
2023/03/30 05:05:28;;;;;;;35.22;6.93;;;;;;;9.21;100.00;95415.75;5037004;28;20045;-74
2023/03/30 05:07:54;;;;;;;39.80;6.40;;;;;;;9.18;100.00;95410.00;5039106;28;20049;-73
2023/03/30 05:10:20;;;;;;;43.50;7.10;;;;;;;9.14;100.00;95401.06;5043201;28;20120;-74
2023/03/30 05:12:46;;;;;;;45.85;6.25;;;;;;;9.11;100.00;95401.59;5049276;28;20099;-72
2023/03/30 05:15:11;;;;;;;26.98;6.10;;;;;;;9.16;100.00;95398.94;5041633;28;20045;-74
2023/03/30 05:17:37;;;;;;;38.50;6.70;;;;;;;9.14;100.00;95395.03;5039360;28;20048;-74
2023/03/30 05:20:07;;;;;;;33.40;6.47;;;;;;;9.13;100.00;95394.22;5047030;28;20064;-73
2023/03/30 05:22:33;;;;;;;39.55;6.28;;;;;;;9.14;100.00;95390.56;5043087;28;20049;-73
2023/03/30 05:25:00;;;;;;;28.38;7.13;;;;;;;9.21;100.00;95400.00;5045222;28;20044;-73
2023/03/30 05:27:25;;;;;;;37.40;6.75;;;;;;;9.13;100.00;95388.97;5040784;28;20033;-73
2023/03/30 05:29:51;;;;;;;33.58;7.00;;;;;;;9.08;100.00;95394.25;5044333;28;20041;-73
2023/03/30 05:32:17;;;;;;;36.03;6.43;;;;;;;9.07;100.00;95395.28;5042836;28;20045;-74
2023/03/30 05:34:42;;;;;;;38.88;6.15;;;;;;;9.10;100.00;95379.00;5040971;28;20064;-75
2023/03/30 05:37:08;;;;;;;36.58;5.60;;;;;;;9.09;100.00;95382.69;5041127;28;20042;-74
2023/03/30 05:39:34;;;;;;;35.13;5.88;;;;;;;9.08;100.00;95373.25;5041759;28;20053;-74
2023/03/30 05:42:00;;;;;;;22.65;5.28;;;;;;;9.04;100.00;95374.81;5039607;28;20428;-73
2023/03/30 05:44:26;;;;;;;34.35;5.20;;;;;;;9.01;100.00;95370.09;5044068;28;20037;-73
2023/03/30 05:46:51;;;;;;;24.25;4.68;;;;;;;9.02;100.00;95366.41;5051424;28;20048;-74
2023/03/30 05:49:17;;;;;;;21.63;4.38;;;;;;;8.95;100.00;95366.69;5038968;28;20056;-75
2023/03/30 05:51:42;;;;;;;25.08;5.97;;;;;;;8.95;100.00;95360.63;5038474;28;20045;-74
2023/03/30 05:54:11;;;;;;;26.83;5.40;;;;;;;8.95;100.00;95355.38;5035431;28;20049;-76
2023/03/30 05:56:37;;;;;;;19.58;4.75;;;;;;;8.98;100.00;95354.88;5037838;28;20078;-74
2023/03/30 05:59:04;;;;;;;22.70;4.60;;;;;;;8.96;100.00;95342.00;5043825;28;20037;-74
2023/03/30 06:01:30;;;;;;;32.38;5.78;;;;;;;8.92;100.00;95337.53;5038025;28;20063;-74
2023/03/30 06:03:55;;;;;;;19.80;5.78;;;;;;;8.96;100.00;95325.47;5033575;28;20049;-73
2023/03/30 06:06:21;;;;;;;24.27;5.28;;;;;;;8.96;100.00;95325.47;5044842;28;20045;-75
2023/03/30 06:08:48;;;;;;;25.42;5.07;;;;;;;9.09;100.00;95309.16;5031992;28;20520;-72
2023/03/30 06:11:14;;;;;;;15.65;4.60;;;;;;;9.04;100.00;95311.00;5045017;28;21865;-72
2023/03/30 06:13:40;;;;;;;21.55;5.88;;;;;;;9.12;100.00;95308.66;5043734;28;20051;-72
2023/03/30 06:16:06;;;;;;;25.58;4.78;;;;;;;9.16;100.00;95299.19;5046660;28;20041;-72
2023/03/30 06:18:32;;;;;;;19.40;5.20;;;;;;;9.21;100.00;95289.72;5037367;28;20041;-73
2023/03/30 06:21:01;;;;;;;22.90;4.88;;;;;;;9.13;100.00;95297.09;5048049;28;20041;-74
2023/03/30 06:23:27;;;;;;;18.23;4.63;;;;;;;9.19;100.00;95282.94;5032484;28;20111;-74
2023/03/30 06:25:54;;;;;;;18.10;4.78;;;;;;;9.19;100.00;95287.38;5038319;28;20501;-74
2023/03/30 06:28:21;;;;;;;19.92;4.28;;;;;;;9.23;100.00;95264.00;5040793;28;20044;-74
2023/03/30 06:30:48;;;;;;;16.30;4.15;;;;;;;9.21;100.00;95263.47;5044209;28;20048;-74
2023/03/30 06:33:17;;;;;;;19.50;3.92;;;;;;;9.21;100.00;95263.47;5047008;28;20507;-74
2023/03/30 06:35:47;;;;;;;22.42;4.70;;;;;;;9.20;100.00;95262.69;5045001;28;20066;-74
2023/03/30 06:38:14;;;;;;;16.35;4.38;;;;;;;9.25;100.00;95261.91;5046571;28;20065;-74
2023/03/30 06:40:40;;;;;;;16.48;3.80;;;;;;;9.30;100.00;95261.91;5049665;28;20040;-73
2023/03/30 06:43:06;;;;;;;9.60;3.65;;;;;;;9.30;100.00;95241.66;5047755;28;20547;-74
2023/03/30 06:45:32;;;;;;;12.55;3.80;;;;;;;9.28;100.00;95240.34;5049602;28;20095;-73
2023/03/30 06:47:58;;;;;;;22.33;4.57;;;;;;;9.40;100.00;95232.97;5041786;28;20037;-74
2023/03/30 06:50:23;;;;;;;16.08;4.00;;;;;;;9.37;100.00;95238.75;5047119;28;20120;-74
2023/03/30 06:52:49;;;;;;;19.60;4.82;;;;;;;9.46;100.00;95231.88;5043783;28;20567;-74
2023/03/30 06:55:14;;;;;;;16.90;4.18;;;;;;;9.42;100.00;95225.59;5044889;28;20501;-74
2023/03/30 06:57:40;;;;;;;10.95;3.83;;;;;;;9.44;100.00;95220.88;5043880;28;20091;-74
2023/03/30 07:00:12;;;;;;;18.33;4.55;;;;;;;9.49;100.00;95212.97;5046863;28;20493;-74
2023/03/30 07:02:41;;;;;;;13.80;3.55;;;;;;;9.44;100.00;95199.88;5040627;28;20037;-74
2023/03/30 07:05:07;;;;;;;18.80;4.00;;;;;;;9.50;100.00;95204.03;5043182;28;20504;-74
2023/03/30 07:07:33;;;;;;;16.25;3.65;;;;;;;9.50;100.00;95188.28;5043130;28;20118;-74
2023/03/30 07:09:59;;;;;;;20.73;3.80;;;;;;;9.57;100.00;95193.25;5036109;28;20088;-74
2023/03/30 07:12:25;;;;;;;15.75;4.03;;;;;;;9.61;100.00;95183.78;5036659;28;20037;-74
2023/03/30 07:14:51;;;;;;;16.25;3.83;;;;;;;9.63;100.00;95180.88;5044397;28;20045;-74
2023/03/30 07:17:16;;;;;;;22.98;3.50;;;;;;;9.62;100.00;95168.78;5045932;28;20041;-73
2023/03/30 07:19:42;;;;;;;11.77;3.90;;;;;;;9.68;100.00;95172.94;5044603;28;20417;-74
2023/03/30 07:22:08;;;;;;;15.10;3.75;;;;;;;9.72;100.00;95168.72;5044061;28;20421;-73
2023/03/30 07:24:34;;;;;;;11.13;4.32;;;;;;;9.81;100.00;95169.72;5048982;28;20041;-73
2023/03/30 07:27:00;;;;;;;15.93;3.92;;;;;;;9.87;100.00;95166.00;5044871;28;20589;-74
2023/03/30 07:29:28;;;;;;;14.70;3.60;;;;;;;9.91;100.00;95168.09;5036915;28;20049;-73
2023/03/30 07:31:55;;;;;;;13.10;4.22;;;;;;;9.98;100.00;95171.97;5042181;28;20045;-73
2023/03/30 07:34:21;;;;;;;12.45;3.50;;;;;;;10.04;100.00;95172.72;5042924;28;20041;-73
2023/03/30 07:36:47;;;;;;;15.50;3.42;;;;;;;10.11;100.00;95175.81;5044830;28;20056;-73
2023/03/30 07:39:13;;;;;;;16.27;3.88;;;;;;;10.04;100.00;95175.34;5042426;28;20086;-74
2023/03/30 07:41:39;;;;;;;12.90;3.35;;;;;;;10.07;100.00;95180.09;5043726;28;20045;-74
2023/03/30 07:44:05;;;;;;;17.85;4.18;;;;;;;10.07;100.00;95174.81;5042938;28;20041;-74
2023/03/30 07:46:30;;;;;;;18.80;3.67;;;;;;;10.08;100.00;95176.38;5036755;28;20122;-74
2023/03/30 07:48:56;;;;;;;11.77;3.47;;;;;;;10.07;100.00;95180.09;5041059;28;20125;-73
2023/03/30 07:51:22;;;;;;;25.83;4.03;;;;;;;10.10;100.00;95184.78;5038119;28;20056;-74
2023/03/30 07:53:47;;;;;;;15.63;3.75;;;;;;;10.16;100.00;95183.69;5042254;28;20045;-74
2023/03/30 07:56:13;;;;;;;12.57;3.60;;;;;;;10.18;100.00;95165.78;5039426;28;20048;-74
2023/03/30 07:58:39;;;;;;;16.85;3.50;;;;;;;10.26;100.00;95182.03;5036325;28;20598;-74
2023/03/30 08:01:05;;;;;;;17.67;4.15;;;;;;;10.23;100.00;95172.88;5039371;28;20049;-74
2023/03/30 08:03:31;;;;;;;19.10;3.92;;;;;;;10.23;100.00;95147.34;5040859;28;20037;-75
2023/03/30 08:06:02;;;;;;;22.00;3.92;;;;;;;10.28;100.00;95158.88;5035547;28;20047;-74
2023/03/30 08:08:29;;;;;;;10.68;3.35;;;;;;;10.42;100.00;95175.63;5038366;28;20103;-74
2023/03/30 08:10:55;;;;;;;14.35;4.40;;;;;;;10.56;100.00;95150.25;5036421;28;20048;-74
2023/03/30 08:13:21;;;;;;;18.90;3.80;;;;;;;10.58;100.00;95134.97;5037715;28;20501;-74
2023/03/30 08:15:46;;;;;;;17.27;3.45;;;;;;;10.58;100.00;95134.97;5037324;28;20045;-74
2023/03/30 08:18:13;;;;;;;15.93;3.95;;;;;;;10.67;100.00;95129.09;5038113;28;20038;-74
2023/03/30 08:20:40;;;;;;;16.02;3.22;;;;;;;10.74;100.00;95126.91;5043905;28;20045;-74
2023/03/30 08:23:07;;;;;;;20.00;3.55;;;;;;;10.87;100.00;95115.72;5033449;28;20041;-74
2023/03/30 08:25:33;;;;;;;15.80;3.40;;;;;;;10.98;100.00;95124.28;5037826;28;20508;-74
2023/03/30 08:27:58;;;;;;;16.63;3.67;;;;;;;11.04;100.00;95122.38;5037075;28;20118;-74
2023/03/30 08:30:24;;;;;;;14.60;3.70;;;;;;;11.16;100.00;95114.88;5034498;28;20041;-75
2023/03/30 08:32:51;;;;;;;9.68;3.38;;;;;;;11.26;100.00;95109.47;5039640;28;20068;-74
2023/03/30 08:35:17;;;;;;;20.67;4.28;;;;;;;11.36;100.00;95103.28;5035262;28;20458;-74
2023/03/30 08:37:43;;;;;;;15.23;4.10;;;;;;;11.50;100.00;95103.38;5038133;28;20093;-74
2023/03/30 08:40:11;;;;;;;14.43;3.92;;;;;;;11.63;100.00;95106.38;5041127;28;20107;-74
2023/03/30 08:43:01;;;;;;;14.07;3.40;;;;;;;11.63;100.00;95111.63;5041862;28;20033;-72
2023/03/30 08:45:37;;;;;;;19.42;3.33;;;;;;;11.55;100.00;95107.78;5037480;28;20069;-74
2023/03/30 08:48:07;;;;;;;7.35;2.88;;;;;;;11.44;100.00;95109.78;5043078;28;20493;-74
2023/03/30 08:50:35;;;;;;;19.88;3.55;;;;;;;11.43;100.00;95108.19;5038245;28;20164;-73
2023/03/30 08:53:06;;;;;;;11.50;3.33;;;;;;;11.52;100.00;95117.06;5047911;28;20131;-74
2023/03/30 08:55:55;;;;;;;15.25;3.50;;;;;;;11.50;100.00;95116.53;5042028;28;20090;-74
2023/03/30 08:58:42;;;;;;;15.05;3.53;;;;;;;11.57;100.00;95116.97;5042103;28;20040;-74
2023/03/30 09:01:11;;;;;;;18.52;3.50;;;;;;;11.71;100.00;95113.59;5043787;28;20049;-74
2023/03/30 09:03:44;;;;;;;13.35;3.78;;;;;;;11.85;100.00;95103.13;5045285;28;20033;-74
2023/03/30 09:06:18;;;;;;;15.38;3.53;;;;;;;11.87;100.00;95090.47;5049541;28;20041;-73
2023/03/30 09:08:46;;;;;;;13.32;3.65;;;;;;;12.06;100.00;95098.38;5042759;28;20099;-74
2023/03/30 09:11:23;;;;;;;13.10;3.17;;;;;;;12.22;100.00;95086.47;5049944;28;20051;-74
2023/03/30 09:13:50;;;;;;;18.10;3.13;;;;;;;12.27;100.00;95115.44;5043728;28;20048;-74
2023/03/30 09:16:41;;;;;;;17.40;3.22;;;;;;;12.57;100.00;95102.78;5043365;28;20057;-74
2023/03/30 09:19:15;;;;;;;12.60;3.63;;;;;;;12.60;100.00;95102.19;5043771;28;20040;-74
2023/03/30 09:21:41;;;;;;;12.80;2.65;;;;;;;12.76;100.00;95088.72;5047789;28;20048;-74
2023/03/30 09:24:14;;;;;;;13.52;3.10;;;;;;;12.92;100.00;95103.19;5042838;28;20092;-74
2023/03/30 09:26:58;;;;;;;13.93;2.67;;;;;;;13.11;100.00;95105.72;5037473;28;20042;-74
2023/03/30 09:29:38;;;;;;;18.92;3.22;;;;;;;13.08;100.00;95100.25;5042549;28;20036;-74
2023/03/30 09:32:17;;;;;;;15.95;2.53;;;;;;;13.37;100.00;95112.38;5040939;28;20040;-74
2023/03/30 09:34:56;;;;;;;18.85;2.70;;;;;;;13.53;100.00;95105.69;5046817;28;20033;-74
2023/03/30 09:37:21;;;;;;;14.00;3.05;;;;;;;13.73;100.00;95108.97;5044595;28;20045;-74
2023/03/30 09:39:49;;;;;;;13.25;2.90;;;;;;;13.90;100.00;95103.81;5050220;28;20052;-74
2023/03/30 09:42:42;;;;;;;11.27;2.50;;;;;;;13.85;100.00;95106.59;5040298;28;20576;-74
2023/03/30 09:45:20;;;;;;;10.25;2.33;;;;;;;13.99;100.00;95112.59;5043644;28;20054;-73
2023/03/30 09:47:45;;;;;;;14.45;2.88;;;;;;;14.14;100.00;95119.38;5043182;28;20044;-74
2023/03/30 09:50:21;;;;;;;12.00;2.55;;;;;;;14.25;100.00;95117.28;5045640;28;20041;-75
2023/03/30 09:52:57;;;;;;;16.27;2.85;;;;;;;14.48;100.00;95117.25;5034461;28;20045;-74
2023/03/30 09:55:31;;;;;;;12.60;2.42;;;;;;;14.47;100.00;95118.34;5041583;28;20504;-74
2023/03/30 09:58:17;;;;;;;12.02;2.38;;;;;;;14.50;100.00;95125.69;5050431;28;20045;-75
2023/03/30 10:00:44;;;;;;;13.02;2.80;;;;;;;14.64;100.00;95125.59;5053909;28;20036;-74
2023/03/30 10:03:21;;;;;;;12.02;2.83;;;;;;;14.72;100.00;95117.72;5045897;28;20064;-74
2023/03/30 10:06:03;;;;;;;11.48;2.47;;;;;;;14.57;100.00;95115.44;5048603;28;20087;-74
2023/03/30 10:08:28;;;;;;;16.88;2.85;;;;;;;14.61;100.00;95119.06;5044768;28;20045;-74
2023/03/30 10:10:56;;;;;;;12.77;2.85;;;;;;;14.69;100.00;95113.03;5052537;28;20045;-74
2023/03/30 10:13:32;;;;;;;14.18;3.83;;;;;;;14.97;100.00;95102.25;5047732;28;20107;-76
2023/03/30 10:16:07;;;;;;;14.13;2.80;;;;;;;14.78;100.00;95089.22;5039544;28;20055;-75
2023/03/30 10:18:38;;;;;;;13.65;3.53;;;;;;;15.11;100.00;95098.69;5049401;28;20056;-75
2023/03/30 10:21:14;;;;;;;19.40;3.05;;;;;;;15.30;100.00;95093.91;5048418;28;20106;-75
2023/03/30 10:23:43;;;;;;;15.50;2.85;;;;;;;15.25;100.00;95102.00;5043323;28;20504;-76
2023/03/30 10:26:20;;;;;;;13.43;3.17;;;;;;;15.33;100.00;95109.19;5043299;28;20053;-75
2023/03/30 10:28:56;;;;;;;18.60;2.60;;;;;;;15.92;100.00;95106.13;5045334;28;20044;-75
2023/03/30 10:31:24;;;;;;;17.63;3.00;;;;;;;16.43;100.00;95109.06;5037098;28;20107;-75
2023/03/30 10:33:56;;;;;;;13.82;3.25;;;;;;;16.42;100.00;95118.09;5040185;28;20489;-75
2023/03/30 10:36:28;;;;;;;18.63;2.90;;;;;;;15.95;100.00;95112.69;5036419;28;20060;-75
2023/03/30 10:38:53;;;;;;;15.60;3.05;;;;;;;15.71;100.00;95119.22;5046674;28;20045;-75
2023/03/30 10:41:22;;;;;;;13.13;2.63;;;;;;;15.65;100.00;95115.16;5050162;28;20401;-75
2023/03/30 10:43:48;;;;;;;19.55;2.80;;;;;;;15.30;100.00;95131.03;5040105;28;20136;-75
2023/03/30 10:46:17;;;;;;;17.35;3.67;;;;;;;15.28;100.00;95133.19;5044964;28;20579;-75
2023/03/30 10:49:07;;;;;;;17.17;3.78;;;;;;;15.28;100.00;95138.47;5031535;28;20088;-75
2023/03/30 10:51:35;;;;;;;13.57;2.42;;;;;;;14.96;100.00;95147.59;5040711;28;20098;-75
2023/03/30 10:54:28;;;;;;;15.43;3.03;;;;;;;14.60;100.00;95157.19;5037266;28;20101;-75
2023/03/30 10:56:58;;;;;;;18.20;3.35;;;;;;;14.38;100.00;95161.44;5043243;28;20111;-75
2023/03/30 11:00:08;;;;;;;15.82;2.90;;;;;;;14.45;100.00;95165.50;5039538;28;20071;-76
2023/03/30 11:02:48;;;;;;;18.08;3.15;;;;;;;14.22;100.00;95178.75;5019789;28;20413;-75
2023/03/30 11:05:45;;;;;;;18.65;3.60;;;;;;;14.32;100.00;95188.31;5038128;28;20037;-75
2023/03/30 11:08:19;;;;;;;10.98;2.80;;;;;;;14.19;100.00;95189.94;5039333;28;20561;-75
2023/03/30 11:10:47;;;;;;;14.45;3.10;;;;;;;13.83;100.00;95220.63;5039986;28;20045;-75
2023/03/30 11:13:26;;;;;;;13.23;3.05;;;;;;;13.75;100.00;95212.56;5036511;28;20032;-75
2023/03/30 11:15:53;;;;;;;14.73;2.80;;;;;;;13.55;100.00;95213.78;5051201;28;20041;-75
2023/03/30 11:18:20;;;;;;;13.38;2.80;;;;;;;13.56;100.00;95210.84;5033754;28;20041;-75
2023/03/30 11:21:11;;;;;;;17.13;3.40;;;;;;;13.45;100.00;95226.13;5037676;28;20037;-76
2023/03/30 11:23:47;;;;;;;26.63;4.18;;;;;;;13.29;100.00;95222.19;5045308;28;20045;-74
2023/03/30 11:26:22;;;;;;;17.73;3.42;;;;;;;13.08;100.00;95221.78;5045884;28;20092;-75
2023/03/30 11:28:56;;;;;;;11.88;3.45;;;;;;;12.92;100.00;95229.97;5044501;28;20056;-74
2023/03/30 11:31:31;;;;;;;17.45;3.25;;;;;;;12.73;100.00;95242.41;5048929;28;20041;-75
2023/03/30 11:34:11;;;;;;;19.50;3.58;;;;;;;12.69;100.00;95236.16;5039884;28;20500;-75
2023/03/30 11:36:43;;;;;;;22.98;3.42;;;;;;;12.49;100.00;95251.25;5041630;28;20048;-75